createdAt,value
2022-11-24T00:01:23.103Z,20.13
2022-11-24T00:03:52.940Z,20.13
2022-11-24T00:06:20.672Z,20.15
2022-11-24T00:08:47.164Z,20.16
2022-11-24T00:11:14.660Z,20.17
2022-11-24T00:13:41.313Z,20.09
2022-11-24T00:16:09.302Z,19.98
2022-11-24T00:18:35.627Z,20.02
2022-11-24T00:21:01.926Z,20.07
2022-11-24T00:23:29.543Z,20.09
2022-11-24T00:25:55.837Z,20.11
2022-11-24T00:28:22.152Z,20.12
2022-11-24T00:30:48.521Z,20.12
2022-11-24T00:33:14.818Z,20.14
2022-11-24T00:35:41.116Z,20.14
2022-11-24T00:38:07.515Z,20.12
2022-11-24T00:40:35.301Z,19.98
2022-11-24T00:43:01.726Z,20.00
2022-11-24T00:45:28.024Z,20.05
2022-11-24T00:47:54.433Z,20.07
2022-11-24T00:50:20.756Z,20.11
2022-11-24T00:52:47.057Z,20.11
2022-11-24T00:55:13.390Z,20.12
2022-11-24T00:57:41.003Z,20.13
2022-11-24T01:00:08.046Z,20.14
2022-11-24T01:02:34.404Z,20.04
2022-11-24T01:05:00.761Z,19.98
2022-11-24T01:07:27.065Z,20.02
2022-11-24T01:09:53.545Z,20.06
2022-11-24T01:12:19.856Z,20.07
2022-11-24T01:14:47.481Z,20.11
2022-11-24T01:17:13.798Z,20.12
2022-11-24T01:19:40.216Z,20.13
2022-11-24T01:22:06.529Z,20.12
2022-11-24T01:24:33.113Z,20.13
2022-11-24T01:26:59.714Z,19.99
2022-11-24T01:29:26.030Z,19.98
2022-11-24T01:31:53.614Z,20.06
2022-11-24T01:34:19.946Z,20.06
2022-11-24T01:36:46.325Z,20.07
2022-11-24T01:39:12.803Z,20.08
2022-11-24T01:41:39.445Z,20.10
2022-11-24T01:44:19.644Z,20.11
2022-11-24T01:46:48.517Z,20.11
2022-11-24T01:49:17.078Z,20.13
2022-11-24T01:51:48.825Z,20.04
2022-11-24T01:54:18.216Z,19.92
2022-11-24T01:56:46.341Z,19.97
2022-11-24T01:59:13.810Z,20.01
2022-11-24T02:01:40.245Z,20.05
2022-11-24T02:04:09.451Z,20.06
2022-11-24T02:06:37.914Z,20.08
2022-11-24T02:09:06.813Z,20.08
2022-11-24T02:11:34.018Z,20.10
2022-11-24T02:14:00.587Z,20.10
2022-11-24T02:16:26.937Z,20.11
2022-11-24T02:18:53.573Z,20.12
2022-11-24T02:21:19.932Z,20.05
2022-11-24T02:23:51.382Z,19.94
2022-11-24T02:26:22.154Z,20.00
2022-11-24T02:28:49.903Z,20.03
2022-11-24T02:31:16.253Z,20.05
2022-11-24T02:33:42.640Z,20.07
2022-11-24T02:36:08.995Z,20.09
2022-11-24T02:38:35.946Z,20.08
2022-11-24T02:41:03.684Z,20.09
2022-11-24T02:43:32.014Z,20.10
2022-11-24T02:45:59.820Z,20.07
2022-11-24T02:48:26.264Z,19.93
2022-11-24T02:50:52.550Z,19.91
2022-11-24T02:53:18.850Z,19.96
2022-11-24T02:55:45.278Z,19.99
2022-11-24T02:58:11.544Z,20.02
2022-11-24T03:00:37.824Z,20.03
2022-11-24T03:03:05.561Z,20.05
2022-11-24T03:05:31.897Z,20.05
2022-11-24T03:07:58.267Z,20.09
2022-11-24T03:10:24.603Z,20.08
2022-11-24T03:12:50.957Z,20.10
2022-11-24T03:15:17.431Z,20.14
2022-11-24T03:17:43.912Z,20.16
2022-11-24T03:20:12.139Z,20.07
2022-11-24T03:22:38.522Z,20.07
2022-11-24T03:25:05.226Z,20.18
2022-11-24T03:27:31.706Z,20.27
2022-11-24T03:29:58.095Z,20.32
2022-11-24T03:32:24.427Z,20.37
2022-11-24T03:34:50.791Z,20.39
2022-11-24T03:37:18.492Z,20.42
2022-11-24T03:39:44.794Z,20.48
2022-11-24T03:42:11.073Z,20.53
2022-11-24T03:44:37.448Z,20.57
2022-11-24T03:47:03.737Z,20.48
2022-11-24T03:49:30.278Z,20.35
2022-11-24T03:51:56.740Z,20.35
2022-11-24T03:54:24.378Z,20.45
2022-11-24T03:56:50.642Z,20.55
2022-11-24T03:59:17.103Z,20.58
2022-11-24T04:01:43.424Z,20.61
2022-11-24T04:04:10.213Z,20.65
2022-11-24T04:06:36.575Z,20.66
2022-11-24T04:09:02.986Z,20.69
2022-11-24T04:11:30.646Z,20.72
2022-11-24T04:13:57.058Z,20.73
2022-11-24T04:16:23.741Z,20.77
2022-11-24T04:18:51.548Z,20.64
2022-11-24T04:21:17.943Z,20.51
2022-11-24T04:23:44.245Z,20.45
2022-11-24T04:26:10.548Z,20.56
2022-11-24T04:28:38.120Z,20.65
2022-11-24T04:31:06.242Z,20.71
2022-11-24T04:33:32.860Z,20.75
2022-11-24T04:35:59.152Z,20.77
2022-11-24T04:39:24.035Z,20.81
2022-11-24T04:41:11.728Z,20.83
2022-11-24T04:43:40.867Z,20.86
2022-11-24T04:46:10.150Z,20.90
2022-11-24T04:48:36.481Z,20.93
2022-11-24T04:51:04.226Z,20.92
2022-11-24T04:53:30.690Z,20.78
2022-11-24T04:55:56.985Z,20.65
2022-11-24T04:58:23.293Z,20.63
2022-11-24T05:00:50.914Z,20.74
2022-11-24T05:03:17.358Z,20.81
2022-11-24T05:05:43.696Z,20.86
2022-11-24T05:08:10.148Z,20.89
2022-11-24T05:10:36.421Z,20.97
2022-11-24T05:13:04.318Z,20.98
2022-11-24T05:15:30.732Z,21.01
2022-11-24T05:17:58.353Z,21.01
2022-11-24T05:20:24.989Z,21.03
2022-11-24T05:22:51.377Z,21.04
2022-11-24T05:25:17.783Z,20.95
2022-11-24T05:27:44.079Z,20.77
2022-11-24T05:30:10.917Z,20.68
2022-11-24T05:32:37.255Z,20.71
2022-11-24T05:35:05.444Z,20.83
2022-11-24T05:37:31.760Z,20.75
2022-11-24T05:39:58.044Z,20.74
2022-11-24T05:42:24.363Z,20.66
2022-11-24T05:44:50.734Z,20.58
2022-11-24T05:47:17.386Z,20.58
2022-11-24T05:49:43.774Z,20.54
2022-11-24T05:52:11.507Z,20.48
2022-11-24T05:54:37.901Z,20.41
2022-11-24T05:57:04.768Z,20.46
2022-11-24T05:59:31.087Z,20.41
2022-11-24T06:01:57.563Z,20.26
2022-11-24T06:04:24.050Z,20.31
2022-11-24T06:06:50.477Z,20.27
2022-11-24T06:09:18.146Z,20.31
2022-11-24T06:11:44.458Z,20.35
2022-11-24T06:14:11.486Z,20.33
2022-11-24T06:16:38.319Z,20.35
2022-11-24T06:19:04.703Z,20.38
2022-11-24T06:21:31.101Z,20.58
2022-11-24T06:23:57.660Z,20.75
2022-11-24T06:26:25.317Z,20.70
2022-11-24T06:28:51.649Z,20.58
2022-11-24T06:31:18.066Z,20.62
2022-11-24T06:33:44.499Z,20.60
2022-11-24T06:36:12.999Z,20.60
2022-11-24T06:38:39.612Z,20.73
2022-11-24T06:41:07.060Z,20.81
2022-11-24T06:43:35.403Z,20.83
2022-11-24T06:46:02.137Z,20.91
2022-11-24T06:48:28.891Z,20.92
2022-11-24T06:50:59.546Z,20.92
2022-11-24T06:53:25.920Z,20.76
2022-11-24T06:55:53.003Z,20.64
2022-11-24T06:58:19.361Z,20.57
2022-11-24T07:00:46.964Z,20.66
2022-11-24T07:03:15.370Z,20.80
2022-11-24T07:05:41.907Z,20.84
2022-11-24T07:08:10.956Z,20.89
2022-11-24T07:10:41.334Z,20.93
2022-11-24T07:13:08.312Z,20.93
2022-11-24T07:15:34.765Z,20.78
2022-11-24T07:18:02.384Z,20.87
2022-11-24T07:20:28.743Z,20.96
2022-11-24T07:22:55.397Z,21.00
2022-11-24T07:25:21.785Z,21.00
2022-11-24T07:27:48.131Z,20.79
2022-11-24T07:30:14.514Z,20.68
2022-11-24T07:32:40.898Z,20.62
2022-11-24T07:35:08.784Z,20.73
2022-11-24T07:37:35.122Z,20.84
2022-11-24T07:40:01.760Z,20.90
2022-11-24T07:42:28.243Z,20.95
2022-11-24T07:44:54.533Z,20.97
2022-11-24T07:47:20.938Z,20.98
2022-11-24T07:49:47.286Z,21.02
2022-11-24T07:52:15.106Z,21.04
2022-11-24T07:54:41.540Z,21.05
2022-11-24T07:57:07.984Z,21.07
2022-11-24T07:59:34.868Z,21.06
2022-11-24T08:02:01.444Z,20.91
2022-11-24T08:04:28.307Z,20.76
2022-11-24T08:06:54.692Z,20.72
2022-11-24T08:09:22.296Z,20.82
2022-11-24T08:11:48.791Z,20.93
2022-11-24T08:14:15.316Z,21.00
2022-11-24T08:16:41.715Z,21.02
2022-11-24T08:19:08.125Z,21.04
2022-11-24T08:21:34.551Z,21.08
2022-11-24T08:24:00.873Z,21.08
2022-11-24T08:26:28.540Z,21.10
2022-11-24T08:28:55.650Z,21.12
2022-11-24T08:31:22.216Z,21.14
2022-11-24T08:33:48.660Z,21.13
2022-11-24T08:36:16.582Z,20.95
2022-11-24T08:38:43.460Z,20.84
2022-11-24T08:41:10.794Z,20.77
2022-11-24T08:43:38.993Z,20.71
2022-11-24T08:46:06.539Z,20.85
2022-11-24T08:48:33.502Z,20.95
2022-11-24T08:51:05.549Z,21.01
2022-11-24T08:53:31.805Z,21.05
2022-11-24T08:55:59.121Z,21.07
2022-11-24T08:58:25.492Z,21.09
2022-11-24T09:00:53.146Z,21.12
2022-11-24T09:03:19.489Z,20.98
2022-11-24T09:05:53.261Z,21.05
2022-11-24T09:08:19.695Z,21.12
2022-11-24T09:10:46.319Z,21.18
2022-11-24T09:13:12.663Z,21.09
2022-11-24T09:15:39.317Z,20.91
2022-11-24T09:18:07.145Z,20.82
2022-11-24T09:20:33.613Z,20.74
2022-11-24T09:22:59.940Z,20.84
2022-11-24T09:25:26.307Z,21.01
2022-11-24T09:27:52.718Z,21.07
2022-11-24T09:30:19.180Z,21.11
2022-11-24T09:32:45.697Z,21.13
2022-11-24T09:35:13.578Z,21.14
2022-11-24T09:37:39.955Z,21.17
2022-11-24T09:40:06.973Z,21.19
2022-11-24T09:42:39.535Z,21.19
2022-11-24T09:45:15.753Z,21.21
2022-11-24T09:47:51.198Z,21.23
2022-11-24T09:50:20.689Z,21.12
2022-11-24T09:52:49.518Z,20.95
2022-11-24T09:55:23.449Z,20.82
2022-11-24T09:57:51.477Z,20.87
2022-11-24T10:00:17.978Z,21.01
2022-11-24T10:02:46.031Z,21.06
2022-11-24T10:05:12.467Z,21.09
2022-11-24T10:07:42.709Z,21.11
2022-11-24T10:10:13.859Z,21.14
2022-11-24T10:12:48.019Z,21.16
2022-11-24T10:15:19.560Z,21.18
2022-11-24T10:17:54.648Z,21.20
2022-11-24T10:20:26.131Z,21.20
2022-11-24T10:23:01.585Z,21.23
2022-11-24T10:25:30.522Z,21.12
2022-11-24T10:27:58.626Z,20.94
2022-11-24T10:30:24.994Z,20.86
2022-11-24T10:32:54.734Z,20.87
2022-11-24T10:35:22.358Z,20.98
2022-11-24T10:37:54.428Z,21.05
2022-11-24T10:40:55.454Z,21.09
2022-11-24T10:43:12.344Z,21.14
2022-11-24T10:45:39.368Z,21.13
2022-11-24T10:48:08.089Z,21.17
2022-11-24T10:50:36.727Z,21.19
2022-11-24T10:53:06.586Z,21.19
2022-11-24T10:55:48.569Z,21.18
2022-11-24T10:58:16.620Z,21.23
2022-11-24T11:03:24.052Z,20.89
2022-11-24T11:05:51.739Z,20.81
2022-11-24T11:08:19.634Z,20.76
2022-11-24T11:10:46.833Z,20.91
2022-11-24T11:13:25.269Z,20.99
2022-11-24T11:15:51.738Z,21.03
2022-11-24T11:18:19.060Z,21.06
2022-11-24T11:20:49.931Z,21.09
2022-11-24T11:23:21.130Z,21.12
2022-11-24T11:25:47.459Z,21.14
2022-11-24T11:28:23.706Z,21.12
2022-11-24T11:31:19.018Z,21.13
2022-11-24T11:34:04.615Z,21.13
2022-11-24T11:36:32.816Z,21.13
2022-11-24T11:38:59.213Z,20.97
2022-11-24T11:41:28.628Z,20.83
2022-11-24T11:44:01.499Z,20.78
2022-11-24T11:46:31.025Z,20.86
2022-11-24T11:48:57.445Z,20.95
2022-11-24T11:51:30.926Z,21.00
2022-11-24T11:54:05.831Z,21.04
2022-11-24T11:56:34.829Z,21.04
2022-11-24T11:59:06.893Z,21.05
2022-11-24T12:01:43.974Z,21.06
2022-11-24T12:04:16.030Z,21.09
2022-11-24T12:06:51.389Z,21.11
2022-11-24T12:09:23.122Z,21.13
2022-11-24T12:11:53.137Z,21.10
2022-11-24T12:14:25.459Z,20.97
2022-11-24T12:16:58.923Z,20.89
2022-11-24T12:19:31.743Z,20.90
2022-11-24T12:22:02.586Z,20.98
2022-11-24T12:24:35.504Z,20.86
2022-11-24T12:27:05.444Z,20.81
2022-11-24T12:29:45.286Z,20.73
2022-11-24T12:32:22.346Z,20.74
2022-11-24T12:34:53.520Z,20.86
2022-11-24T12:37:26.602Z,20.95
2022-11-24T12:39:55.474Z,21.04
2022-11-24T12:42:26.361Z,21.07
2022-11-24T12:44:59.291Z,21.11
2022-11-24T12:47:32.056Z,20.94
2022-11-24T12:50:02.680Z,20.79
2022-11-24T12:52:31.222Z,20.76
2022-11-24T12:54:57.862Z,20.84
2022-11-24T12:57:27.510Z,20.98
2022-11-24T12:59:56.756Z,21.05
2022-11-24T13:02:28.273Z,21.10
2022-11-24T13:04:58.885Z,21.12
2022-11-24T13:07:36.069Z,21.15
2022-11-24T13:10:12.242Z,21.18
2022-11-24T13:12:52.276Z,21.20
2022-11-24T13:15:43.391Z,21.21
2022-11-24T13:18:25.462Z,21.24
2022-11-24T13:20:53.202Z,21.27
2022-11-24T13:23:23.016Z,21.05
2022-11-24T13:26:13.567Z,20.91
2022-11-24T13:29:01.753Z,20.89
2022-11-24T13:31:30.319Z,21.09
2022-11-24T13:33:57.345Z,21.15
2022-11-24T13:36:29.829Z,21.15
2022-11-24T13:38:56.264Z,21.21
2022-11-24T13:41:37.464Z,21.26
2022-11-24T13:44:17.411Z,21.23
2022-11-24T13:46:53.734Z,21.14
2022-11-24T13:49:20.498Z,21.14
2022-11-24T13:51:48.250Z,21.07
2022-11-24T13:54:14.723Z,21.07
2022-11-24T13:56:41.143Z,21.12
2022-11-24T13:59:16.149Z,21.07
2022-11-24T14:01:42.729Z,21.04
2022-11-24T14:04:33.985Z,21.04
2022-11-24T14:07:07.963Z,21.09
2022-11-24T14:09:37.169Z,21.31
2022-11-24T14:12:06.639Z,21.38
2022-11-24T14:14:33.340Z,21.40
2022-11-24T14:17:08.512Z,21.43
2022-11-24T14:19:35.004Z,21.26
2022-11-24T14:22:02.913Z,21.24
2022-11-24T14:24:32.769Z,21.33
2022-11-24T14:27:01.877Z,21.16
2022-11-24T14:29:28.216Z,20.94
2022-11-24T14:31:55.837Z,20.87
2022-11-24T14:34:23.335Z,20.90
2022-11-24T14:36:50.854Z,21.00
2022-11-24T14:39:19.170Z,21.15
2022-11-24T14:41:50.517Z,21.20
2022-11-24T14:44:19.295Z,21.07
2022-11-24T14:46:46.011Z,21.03
2022-11-24T14:49:16.782Z,21.12
2022-11-24T14:51:44.179Z,21.20
2022-11-24T14:54:15.274Z,21.21
2022-11-24T14:56:55.736Z,21.26
2022-11-24T14:59:23.001Z,21.14
2022-11-24T15:01:49.524Z,21.05
2022-11-24T15:04:54.578Z,21.07
2022-11-24T15:07:06.098Z,21.01
2022-11-24T15:09:34.161Z,21.09
2022-11-24T15:12:06.379Z,21.01
2022-11-24T15:14:36.748Z,20.96
2022-11-24T15:17:03.914Z,20.92
2022-11-24T15:19:32.144Z,20.84
2022-11-24T15:21:58.467Z,20.84
2022-11-24T15:24:24.831Z,20.78
2022-11-24T15:26:58.086Z,20.79
2022-11-24T15:29:25.753Z,20.82
2022-11-24T15:31:53.120Z,20.81
2022-11-24T15:34:19.645Z,20.62
2022-11-24T15:36:45.964Z,20.67
2022-11-24T15:39:12.343Z,20.93
2022-11-24T15:41:38.747Z,21.04
2022-11-24T15:44:05.060Z,21.11
2022-11-24T15:46:32.762Z,21.17
2022-11-24T15:48:59.144Z,21.21
2022-11-24T15:51:26.014Z,21.23
2022-11-24T15:53:58.711Z,21.28
2022-11-24T15:56:29.802Z,21.29
2022-11-24T15:58:56.366Z,21.13
2022-11-24T16:01:24.265Z,20.96
2022-11-24T16:03:51.987Z,20.86
2022-11-24T16:06:24.500Z,20.80
2022-11-24T16:08:51.335Z,20.91
2022-11-24T16:11:17.719Z,21.00
2022-11-24T16:13:48.544Z,21.06
2022-11-24T16:16:18.234Z,21.11
2022-11-24T16:18:44.799Z,21.14
2022-11-24T16:21:12.359Z,21.18
2022-11-24T16:23:38.678Z,21.15
2022-11-24T16:26:05.465Z,21.15
2022-11-24T16:28:31.828Z,21.18
2022-11-24T16:30:58.358Z,21.17
2022-11-24T16:33:24.756Z,21.12
2022-11-24T16:35:51.232Z,20.94
2022-11-24T16:38:18.855Z,20.81
2022-11-24T16:40:50.135Z,20.74
2022-11-24T16:43:16.495Z,20.72
2022-11-24T16:45:45.564Z,20.83
2022-11-24T16:48:12.163Z,20.87
2022-11-24T16:50:39.177Z,20.94
2022-11-24T16:53:05.481Z,20.98
2022-11-24T16:55:33.066Z,21.03
2022-11-24T16:57:59.373Z,21.05
2022-11-24T17:00:25.687Z,21.06
2022-11-24T17:02:52.227Z,21.04
2022-11-24T17:05:18.610Z,21.05
2022-11-24T17:07:45.108Z,21.06
2022-11-24T17:10:11.582Z,21.04
2022-11-24T17:12:39.193Z,20.90
2022-11-24T17:18:22.354Z,20.66
2022-11-24T17:20:38.171Z,20.74
2022-11-24T17:23:04.452Z,20.84
2022-11-24T17:25:31.684Z,20.89
2022-11-24T17:27:59.365Z,20.90
2022-11-24T17:30:25.650Z,20.91
2022-11-24T17:32:56.586Z,20.93
2022-11-24T17:35:23.719Z,20.92
2022-11-24T17:37:50.298Z,20.93
2022-11-24T17:40:32.134Z,20.93
2022-11-24T17:43:00.366Z,20.94
2022-11-24T17:45:27.214Z,20.87
2022-11-24T17:47:53.597Z,20.71
2022-11-24T17:50:29.828Z,20.63
2022-11-24T17:52:56.121Z,20.70
2022-11-24T17:55:22.423Z,20.78
2022-11-24T17:57:51.994Z,20.80
2022-11-24T18:00:19.846Z,20.83
2022-11-24T18:02:46.221Z,20.82
2022-11-24T18:07:47.990Z,20.86
2022-11-24T18:10:14.483Z,20.86
2022-11-24T18:12:40.790Z,20.87
2022-11-24T18:15:07.456Z,20.80
2022-11-24T18:17:35.095Z,20.66
2022-11-24T18:20:01.412Z,20.59
2022-11-24T18:22:50.108Z,20.66
2022-11-24T18:25:14.100Z,20.72
2022-11-24T18:27:40.436Z,20.76
2022-11-24T18:30:07.285Z,20.75
2022-11-24T18:32:34.963Z,20.78
2022-11-24T18:35:01.273Z,20.79
2022-11-24T18:37:28.999Z,20.78
2022-11-24T18:39:55.438Z,20.81
2022-11-24T18:42:21.821Z,20.81
2022-11-24T18:44:52.570Z,20.79
2022-11-24T18:47:20.383Z,20.63
2022-11-24T18:49:48.000Z,20.52
2022-11-24T18:52:14.364Z,20.48
2022-11-24T18:54:40.692Z,20.55
2022-11-24T18:57:07.024Z,20.62
2022-11-24T18:59:33.281Z,20.65
2022-11-24T19:01:59.635Z,20.66
2022-11-24T19:04:26.090Z,20.67
2022-11-24T19:06:53.843Z,20.68
2022-11-24T19:09:20.229Z,20.70
2022-11-24T19:11:47.256Z,20.73
2022-11-24T19:14:14.820Z,20.72
2022-11-24T19:16:41.368Z,20.72
2022-11-24T19:19:07.863Z,20.73
2022-11-24T19:21:35.312Z,20.66
2022-11-24T19:24:05.413Z,20.52
2022-11-24T19:26:32.326Z,20.48
2022-11-24T19:28:58.606Z,20.56
2022-11-24T19:31:25.066Z,20.60
2022-11-24T19:33:51.498Z,20.62
2022-11-24T19:36:18.840Z,20.64
2022-11-24T19:38:48.734Z,20.64
2022-11-24T19:41:17.044Z,20.64
2022-11-24T19:43:43.445Z,20.67
2022-11-24T19:46:10.972Z,20.67
2022-11-24T19:48:38.196Z,20.68
2022-11-24T19:51:05.959Z,20.65
2022-11-24T19:53:32.538Z,20.49
2022-11-24T19:56:02.968Z,20.41
2022-11-24T19:58:30.851Z,20.40
2022-11-24T20:01:04.822Z,20.49
2022-11-24T20:03:31.189Z,20.52
2022-11-24T20:05:57.522Z,20.54
2022-11-24T20:08:23.844Z,20.56
2022-11-24T20:10:50.180Z,20.57
2022-11-24T20:13:16.505Z,20.58
2022-11-24T20:15:44.288Z,20.58
2022-11-24T20:18:10.685Z,20.60
2022-11-24T20:20:37.031Z,20.61
2022-11-24T20:23:03.377Z,20.62
2022-11-24T20:25:29.676Z,20.56
2022-11-24T20:27:55.954Z,20.41
2022-11-24T20:30:22.297Z,20.35
2022-11-24T20:32:49.918Z,20.39
2022-11-24T20:35:18.369Z,20.45
2022-11-24T20:37:44.877Z,20.48
2022-11-24T20:40:11.454Z,20.49
2022-11-24T20:42:37.835Z,20.53
2022-11-24T20:45:04.410Z,20.52
2022-11-24T20:47:30.848Z,20.54
2022-11-24T20:49:58.519Z,20.55
2022-11-24T20:52:24.851Z,20.56
2022-11-24T20:54:51.197Z,20.57
2022-11-24T20:57:17.527Z,20.53
2022-11-24T20:59:43.839Z,20.38
2022-11-24T21:02:10.229Z,20.33
2022-11-24T21:04:36.962Z,20.37
2022-11-24T21:07:04.969Z,20.41
2022-11-24T21:09:31.472Z,20.43
2022-11-24T21:11:57.891Z,20.45
2022-11-24T21:14:24.178Z,20.47
2022-11-24T21:16:50.566Z,20.49
2022-11-24T21:19:17.048Z,20.51
2022-11-24T21:21:43.942Z,20.52
2022-11-24T21:24:12.252Z,20.53
2022-11-24T21:26:39.194Z,20.53
2022-11-24T21:29:06.425Z,20.40
2022-11-24T21:31:34.539Z,20.32
2022-11-24T21:34:00.855Z,20.34
2022-11-24T21:36:27.188Z,20.40
2022-11-24T21:38:54.467Z,20.42
2022-11-24T21:41:22.702Z,20.43
2022-11-24T21:43:49.358Z,20.46
2022-11-24T21:46:15.995Z,20.46
2022-11-24T21:48:42.450Z,20.47
2022-11-24T21:51:11.632Z,20.48
2022-11-24T21:53:38.475Z,20.49
2022-11-24T21:56:06.153Z,20.42
2022-11-24T21:58:33.790Z,20.27
2022-11-24T22:01:01.256Z,20.26
2022-11-24T22:03:27.634Z,20.33
2022-11-24T22:05:53.964Z,20.37
2022-11-24T22:08:20.282Z,20.39
2022-11-24T22:10:46.687Z,20.40
2022-11-24T22:13:13.104Z,20.41
2022-11-24T22:15:40.658Z,20.43
2022-11-24T22:18:06.976Z,20.44
2022-11-24T22:20:33.282Z,20.44
2022-11-24T22:22:59.709Z,20.47
2022-11-24T22:25:26.140Z,20.44
2022-11-24T22:27:52.474Z,20.30
2022-11-24T22:30:18.839Z,20.28
2022-11-24T22:32:46.432Z,20.34
2022-11-24T22:35:12.794Z,20.38
2022-11-24T22:37:39.095Z,20.38
2022-11-24T22:40:05.938Z,20.40
2022-11-24T22:42:32.222Z,20.41
2022-11-24T22:44:58.485Z,20.41
2022-11-24T22:47:24.788Z,20.44
2022-11-24T22:49:52.375Z,20.44
2022-11-24T22:52:18.716Z,20.36
2022-11-24T22:54:45.092Z,20.23
2022-11-24T22:57:11.534Z,20.21
2022-11-24T22:59:37.838Z,20.27
2022-11-24T23:02:04.171Z,20.31
2022-11-24T23:04:30.509Z,20.34
2022-11-24T23:06:58.154Z,20.36
2022-11-24T23:09:24.480Z,20.37
2022-11-24T23:11:50.771Z,20.38
2022-11-24T23:14:17.210Z,20.39
2022-11-24T23:16:43.807Z,20.42
2022-11-24T23:19:10.321Z,20.40
2022-11-24T23:21:37.325Z,20.41
2022-11-24T23:24:05.633Z,20.27
2022-11-24T23:26:33.120Z,20.21
2022-11-24T23:28:59.895Z,20.29
2022-11-24T23:31:27.103Z,20.31
2022-11-24T23:33:53.470Z,20.33
2022-11-24T23:36:20.319Z,20.34
2022-11-24T23:38:47.035Z,20.36
2022-11-24T23:41:15.526Z,20.37
2022-11-24T23:43:42.475Z,20.37
2022-11-24T23:46:09.804Z,20.39
2022-11-24T23:48:36.621Z,20.34
2022-11-24T23:51:03.507Z,20.18
2022-11-24T23:53:30.967Z,20.21
2022-11-24T23:55:57.246Z,20.27
2022-11-24T23:58:25.010Z,20.30
